Time;durP1;ratioP1;P1;durP2;ratioP2;P2;SDS_P1;SDS_P2;PMS_P1;PMS_P2;Temp;Humidity;BMP_temperature;BMP_pressure;BME280_temperature;BME280_humidity;BME280_pressure;Samples;Min_cycle;Max_cycle;Signal;HPM_P1;HPM_P2
2023/04/03 00:01:00;;;;;;;3.67;2.77;;;;;;;3.74;87.76;98909.19;5073025;28;20220;-80
2023/04/03 00:03:27;;;;;;;4.37;2.60;;;;;;;3.73;87.98;98904.03;5072957;28;20672;-81
2023/04/03 00:05:53;;;;;;;5.83;2.70;;;;;;;3.72;88.45;98899.72;5072988;28;20219;-81
2023/04/03 00:08:22;;;;;;;4.80;2.50;;;;;;;3.69;89.12;98911.13;5072770;28;20209;-80
2023/04/03 00:10:48;;;;;;;5.40;3.17;;;;;;;3.67;89.66;98912.06;5072804;28;20214;-81
2023/04/03 00:13:15;;;;;;;3.13;2.27;;;;;;;3.72;88.89;98910.19;5073103;28;20208;-80
2023/04/03 00:15:42;;;;;;;2.83;2.50;;;;;;;3.68;88.71;98904.16;5072979;28;20202;-81
2023/04/03 00:18:08;;;;;;;3.20;2.53;;;;;;;3.72;87.17;98903.19;5073210;28;20204;-80
2023/04/03 00:20:35;;;;;;;3.50;2.67;;;;;;;3.65;87.97;98909.50;5072417;28;20242;-80
2023/04/03 00:23:03;;;;;;;4.37;2.73;;;;;;;3.74;87.54;98906.59;5072782;28;20208;-80
2023/04/03 00:25:30;;;;;;;3.67;2.73;;;;;;;3.73;87.90;98907.50;5072650;28;20219;-81
2023/04/03 00:27:57;;;;;;;3.17;2.80;;;;;;;3.64;88.46;98915.63;5072606;28;20235;-80
2023/04/03 00:30:24;;;;;;;4.77;3.00;;;;;;;3.67;89.02;98907.69;5072426;28;20294;-80
2023/04/03 00:32:51;;;;;;;4.23;2.97;;;;;;;3.73;88.04;98907.50;5072919;28;20215;-80
2023/04/03 00:35:19;;;;;;;4.33;2.80;;;;;;;3.71;87.49;98909.31;5072631;28;20214;-80
2023/04/03 00:37:46;;;;;;;3.60;2.40;;;;;;;3.67;88.01;98907.69;5072492;28;20233;-79
2023/04/03 00:40:14;;;;;;;5.10;2.70;;;;;;;3.69;87.76;98908.50;5072703;28;20239;-81
2023/04/03 00:42:45;;;;;;;3.73;2.33;;;;;;;3.73;87.82;98906.66;5072708;28;20213;-80
2023/04/03 00:45:35;;;;;;;3.70;2.83;;;;;;;3.72;88.27;98904.94;5072531;28;20208;-80
2023/04/03 00:48:06;;;;;;;4.33;2.73;;;;;;;3.73;89.37;98911.88;5072302;28;20323;-80
2023/04/03 00:50:35;;;;;;;2.93;2.53;;;;;;;3.80;87.37;98898.56;5071990;28;20258;-80
2023/04/03 00:53:02;;;;;;;3.80;2.40;;;;;;;3.78;87.37;98892.53;5072393;28;20202;-80
2023/04/03 00:55:30;;;;;;;2.67;2.47;;;;;;;3.78;87.00;98895.16;5072279;28;20221;-81
2023/04/03 00:57:58;;;;;;;3.20;2.57;;;;;;;3.75;87.58;98897.00;5072147;28;20227;-81
2023/04/03 01:00:25;;;;;;;3.17;2.40;;;;;;;3.72;87.29;98894.50;5069403;28;20236;-81
2023/04/03 01:02:52;;;;;;;3.27;2.47;;;;;;;3.72;86.36;98890.09;5069051;28;20354;-81
2023/04/03 01:05:21;;;;;;;2.83;2.57;;;;;;;3.65;86.97;98893.81;5071409;28;20213;-80
2023/04/03 01:07:50;;;;;;;3.33;2.70;;;;;;;3.65;87.48;98893.81;5072020;28;20275;-80
2023/04/03 01:10:19;;;;;;;3.50;2.60;;;;;;;3.62;86.37;98893.88;5071365;28;20639;-82
2023/04/03 01:12:48;;;;;;;5.67;2.87;;;;;;;3.57;87.47;98895.81;5071654;28;20273;-81
2023/04/03 01:15:18;;;;;;;3.20;2.80;;;;;;;3.60;87.31;98895.69;5071585;28;20559;-81
2023/04/03 01:17:47;;;;;;;5.50;2.83;;;;;;;3.50;89.02;98909.97;5071835;28;20230;-81
2023/04/03 01:21:09;;;;;;;3.40;2.73;;;;;;;3.58;88.14;98892.28;5071503;28;20249;-80
2023/04/03 01:23:53;;;;;;;4.93;3.10;;;;;;;3.48;89.80;98895.22;4989895;28;20209;-80
2023/04/03 01:26:21;;;;;;;3.13;2.70;;;;;;;3.51;89.90;98897.72;5064174;28;20227;-81
2023/04/03 01:28:47;;;;;;;3.73;3.10;;;;;;;3.45;90.48;98905.75;5071662;28;20254;-81
2023/04/03 01:31:23;;;;;;;4.20;2.80;;;;;;;3.34;91.56;98900.81;5071220;28;20702;-80
2023/04/03 01:33:51;;;;;;;3.83;3.13;;;;;;;3.36;92.66;98912.09;5071542;28;20210;-81
2023/04/03 01:36:20;;;;;;;3.93;2.73;;;;;;;3.33;92.93;98912.19;5071330;28;20741;-80
2023/04/03 01:38:47;;;;;;;3.23;2.60;;;;;;;3.28;93.15;98919.28;5071399;28;20300;-81
2023/04/03 01:41:13;;;;;;;3.20;2.73;;;;;;;3.34;93.05;98924.34;5071025;28;20216;-80
2023/04/03 01:43:40;;;;;;;3.67;2.73;;;;;;;3.34;92.73;98928.69;5071719;28;20215;-81
2023/04/03 01:46:07;;;;;;;3.20;2.90;;;;;;;3.34;92.33;98923.47;5071348;28;20237;-80
2023/04/03 01:48:34;;;;;;;3.40;2.77;;;;;;;3.35;91.19;98913.00;5071663;28;20212;-81
2023/04/03 01:51:02;;;;;;;4.37;3.07;;;;;;;3.29;91.94;98910.53;5071067;28;20236;-81
2023/04/03 01:53:29;;;;;;;3.40;2.77;;;;;;;3.32;91.45;98907.88;5071416;28;20671;-81
2023/04/03 01:55:55;;;;;;;3.60;2.90;;;;;;;3.36;89.41;98906.84;5071202;28;20630;-81
2023/04/03 01:58:22;;;;;;;4.53;3.10;;;;;;;3.30;88.70;98907.03;5071004;28;20210;-82
2023/04/03 02:00:48;;;;;;;3.00;2.70;;;;;;;3.36;88.42;98906.03;5070662;28;20231;-80
2023/04/03 02:03:15;;;;;;;4.33;2.97;;;;;;;3.32;88.48;98915.69;5070945;28;20208;-82
2023/04/03 02:05:42;;;;;;;3.60;2.80;;;;;;;3.33;88.98;98911.31;5070968;28;20254;-81
2023/04/03 02:08:10;;;;;;;4.40;2.97;;;;;;;3.32;89.04;98914.84;5071220;28;20570;-81
2023/04/03 02:10:36;;;;;;;3.73;3.10;;;;;;;3.30;89.37;98912.25;5070702;28;20204;-81
2023/04/03 02:13:04;;;;;;;3.60;2.87;;;;;;;3.22;90.09;98910.75;5070878;28;20215;-81
2023/04/03 02:15:30;;;;;;;3.70;3.00;;;;;;;3.16;90.68;98914.41;5071098;28;20215;-81
2023/04/03 02:17:56;;;;;;;3.97;3.00;;;;;;;3.27;90.32;98917.56;5070860;28;20242;-81
2023/04/03 02:20:23;;;;;;;3.20;2.87;;;;;;;3.24;90.14;98912.41;5070886;28;20235;-81
2023/04/03 02:22:50;;;;;;;2.80;2.50;;;;;;;3.24;89.50;98917.66;5070996;28;20204;-81
2023/04/03 02:25:18;;;;;;;3.00;2.73;;;;;;;3.25;89.10;98916.75;5070959;28;20203;-81
2023/04/03 02:27:45;;;;;;;3.60;2.70;;;;;;;3.24;88.24;98912.41;5070845;28;20235;-82
2023/04/03 02:30:12;;;;;;;3.30;3.00;;;;;;;3.21;88.40;98912.53;5070434;28;20201;-81
2023/04/03 02:32:39;;;;;;;4.70;2.63;;;;;;;3.23;87.29;98909.84;5070629;28;20207;-81
2023/04/03 02:35:06;;;;;;;3.20;2.77;;;;;;;3.24;85.29;98904.59;5070950;28;20239;-81
2023/04/03 02:37:33;;;;;;;3.27;2.80;;;;;;;3.29;85.62;98905.31;5071385;28;20314;-81
2023/04/03 02:39:59;;;;;;;2.60;2.30;;;;;;;3.35;81.44;98886.84;5074184;28;20715;-82
2023/04/03 02:42:27;;;;;;;4.27;2.60;;;;;;;3.35;80.95;98876.41;5074560;28;20215;-81
2023/04/03 02:44:55;;;;;;;3.00;2.47;;;;;;;3.33;81.06;98886.06;5074780;28;20224;-81
2023/04/03 02:47:21;;;;;;;3.47;2.60;;;;;;;3.42;80.22;98880.56;5074504;28;20647;-81
2023/04/03 02:49:48;;;;;;;6.53;3.60;;;;;;;3.44;79.71;98880.53;5074284;28;20287;-81
2023/04/03 02:52:15;;;;;;;2.50;2.27;;;;;;;3.47;78.97;98883.03;5074729;28;20208;-82
2023/04/03 02:54:41;;;;;;;2.90;2.50;;;;;;;3.53;77.23;98878.50;5074642;28;20208;-81
2023/04/03 02:57:08;;;;;;;3.23;2.50;;;;;;;3.48;78.15;98890.81;5074320;28;20554;-81
2023/04/03 02:59:36;;;;;;;3.13;2.60;;;;;;;3.53;76.86;98878.50;5074088;28;20761;-81
2023/04/03 03:02:03;;;;;;;3.77;2.50;;;;;;;3.50;76.69;98873.38;5074774;28;20558;-81
2023/04/03 03:04:29;;;;;;;3.87;2.67;;;;;;;3.52;78.21;98891.59;5074544;28;20677;-81
2023/04/03 03:06:56;;;;;;;2.70;2.33;;;;;;;3.55;76.77;98881.91;5074188;28;20233;-81
2023/04/03 03:09:22;;;;;;;2.63;2.17;;;;;;;3.57;76.22;98874.91;5074091;28;20210;-81
2023/04/03 03:11:49;;;;;;;3.07;2.70;;;;;;;3.56;76.22;98870.53;5074236;28;20226;-81
2023/04/03 03:14:15;;;;;;;3.30;2.63;;;;;;;3.57;76.45;98874.91;5074065;28;20207;-81
2023/04/03 03:16:43;;;;;;;3.67;2.70;;;;;;;3.56;76.93;98869.72;5074247;28;20223;-81
2023/04/03 03:19:10;;;;;;;2.77;2.40;;;;;;;3.58;77.37;98878.34;5073995;28;20623;-81
2023/04/03 03:21:36;;;;;;;4.47;2.50;;;;;;;3.56;78.23;98881.00;5073768;28;20234;-81
2023/04/03 03:24:03;;;;;;;3.00;2.70;;;;;;;3.54;77.88;98879.34;5073851;28;20216;-81
2023/04/03 03:26:30;;;;;;;3.07;2.50;;;;;;;3.57;78.43;98882.72;5073973;28;20235;-81
2023/04/03 03:28:56;;;;;;;3.67;2.43;;;;;;;3.54;77.75;98869.75;5073747;28;20277;-81
2023/04/03 03:31:23;;;;;;;2.97;2.40;;;;;;;3.58;77.47;98870.50;5073630;28;20203;-81
2023/04/03 03:33:51;;;;;;;2.73;2.47;;;;;;;3.53;79.93;98880.22;5074053;28;20207;-81
2023/04/03 03:36:17;;;;;;;3.27;2.50;;;;;;;3.56;80.05;98883.59;5073777;28;20227;-80
2023/04/03 03:38:43;;;;;;;2.77;2.47;;;;;;;3.50;79.80;98883.81;5074091;28;20212;-80
2023/04/03 03:41:10;;;;;;;3.70;2.70;;;;;;;3.50;82.18;98886.44;5073250;28;20231;-81
2023/04/03 03:43:37;;;;;;;3.93;2.50;;;;;;;3.51;82.17;98889.88;5073407;28;20216;-81
2023/04/03 03:46:03;;;;;;;4.27;2.53;;;;;;;3.47;82.60;98889.13;5073444;28;20230;-80
2023/04/03 03:48:30;;;;;;;3.20;2.67;;;;;;;3.50;81.56;98889.03;5073288;28;20204;-81
2023/04/03 03:50:57;;;;;;;3.07;2.20;;;;;;;3.51;82.91;98895.13;5072452;28;20259;-81
2023/04/03 03:53:24;;;;;;;3.70;2.53;;;;;;;3.46;83.07;98910.94;5073446;28;20213;-82
2023/04/03 03:55:51;;;;;;;3.80;2.90;;;;;;;3.46;83.27;98903.09;5073306;28;20305;-80
2023/04/03 03:58:17;;;;;;;4.33;2.90;;;;;;;3.48;82.28;98903.91;5073298;28;20579;-80
2023/04/03 04:00:43;;;;;;;3.00;2.70;;;;;;;3.50;81.71;98891.66;5073057;28;20234;-81
2023/04/03 04:03:10;;;;;;;3.07;2.77;;;;;;;3.49;82.71;98900.38;5073376;28;20213;-81
2023/04/03 04:05:36;;;;;;;3.67;2.60;;;;;;;3.52;81.16;98900.31;5073232;28;20211;-81
2023/04/03 04:08:04;;;;;;;3.17;2.63;;;;;;;3.53;79.10;98894.16;5073020;28;20230;-81
2023/04/03 04:10:31;;;;;;;3.00;2.67;;;;;;;3.54;80.82;98902.88;5072918;28;20211;-80
2023/04/03 04:12:57;;;;;;;3.57;2.90;;;;;;;3.45;81.17;98910.97;5073111;28;20215;-81
2023/04/03 04:15:25;;;;;;;3.33;2.93;;;;;;;3.47;80.71;98915.25;5073342;28;20207;-80
2023/04/03 04:17:52;;;;;;;3.30;3.00;;;;;;;3.44;82.04;98920.59;5072870;28;20262;-82
2023/04/03 04:20:18;;;;;;;3.63;2.77;;;;;;;3.43;82.40;98913.63;5072702;28;20229;-81
2023/04/03 04:22:45;;;;;;;3.00;2.70;;;;;;;3.45;83.04;98916.19;5073065;28;20210;-81
2023/04/03 04:25:12;;;;;;;3.57;3.10;;;;;;;3.45;82.65;98922.28;5072849;28;20212;-81
2023/04/03 04:27:39;;;;;;;2.87;2.67;;;;;;;3.42;83.41;98916.28;5072844;28;20745;-80
2023/04/03 04:30:07;;;;;;;2.80;2.60;;;;;;;3.38;82.77;98915.53;5072633;28;20205;-81
2023/04/03 04:32:34;;;;;;;3.00;2.70;;;;;;;3.38;83.36;98912.91;5072656;28;20208;-81
2023/04/03 04:35:00;;;;;;;4.10;2.90;;;;;;;3.38;80.75;98892.00;5072653;28;20211;-81
2023/04/03 04:37:27;;;;;;;2.93;2.63;;;;;;;3.37;80.73;98897.28;5072523;28;20236;-81
2023/04/03 04:39:53;;;;;;;3.00;2.70;;;;;;;3.44;79.61;98889.22;5072470;28;20832;-81
2023/04/03 04:42:21;;;;;;;2.93;2.63;;;;;;;3.36;81.75;98901.63;5072960;28;20303;-81
2023/04/03 04:44:48;;;;;;;2.90;2.63;;;;;;;3.36;83.01;98922.53;5072288;28;20218;-81
2023/04/03 04:47:14;;;;;;;3.00;2.70;;;;;;;3.37;82.03;98910.34;5072296;28;20243;-81
2023/04/03 04:49:41;;;;;;;2.97;2.60;;;;;;;3.33;81.10;98911.31;5072229;28;20605;-81
2023/04/03 04:52:07;;;;;;;3.03;2.70;;;;;;;3.36;81.02;98906.03;5072034;28;20216;-81
2023/04/03 04:54:34;;;;;;;3.23;2.60;;;;;;;3.38;80.88;98907.69;5072305;28;20213;-81
2023/04/03 04:57:00;;;;;;;3.83;2.67;;;;;;;3.41;80.37;98898.88;5071917;28;20304;-81
2023/04/03 04:59:28;;;;;;;7.37;3.17;;;;;;;3.38;80.52;98910.31;5072030;28;20216;-81
2023/04/03 05:01:55;;;;;;;3.63;3.07;;;;;;;3.38;81.26;98915.53;5070849;28;20725;-81
2023/04/03 05:04:21;;;;;;;2.93;2.40;;;;;;;3.36;81.36;98913.84;5071985;28;20207;-81
2023/04/03 05:06:48;;;;;;;3.47;2.87;;;;;;;3.39;80.71;98922.47;5072085;28;20600;-81
2023/04/03 05:09:14;;;;;;;2.73;2.50;;;;;;;3.48;77.46;98906.50;5071756;28;20578;-81
2023/04/03 05:11:41;;;;;;;2.50;2.30;;;;;;;3.50;76.63;98915.19;5071933;28;20220;-81
2023/04/03 05:14:07;;;;;;;3.33;2.70;;;;;;;3.56;75.82;98909.75;5071942;28;20692;-81
2023/04/03 05:16:36;;;;;;;3.83;2.67;;;;;;;3.48;76.39;98911.72;5071852;28;20254;-81
2023/04/03 05:19:02;;;;;;;4.03;2.57;;;;;;;3.48;77.34;98922.19;5071591;28;20212;-81
2023/04/03 05:21:31;;;;;;;3.23;2.33;;;;;;;3.52;76.10;98913.38;5071503;28;20234;-81
2023/04/03 05:23:58;;;;;;;4.97;2.40;;;;;;;3.53;75.39;98912.47;5071800;28;20210;-82
2023/04/03 05:26:25;;;;;;;3.47;2.40;;;;;;;3.49;75.92;98913.44;5071485;28;20234;-81
2023/04/03 05:28:51;;;;;;;3.03;2.03;;;;;;;3.43;76.57;98911.00;5071873;28;20208;-81
2023/04/03 05:31:18;;;;;;;2.67;2.10;;;;;;;3.38;77.72;98927.72;5071168;28;20217;-81
2023/04/03 05:33:46;;;;;;;3.27;2.30;;;;;;;3.34;78.59;98937.41;5071694;28;20217;-80
2023/04/03 05:36:13;;;;;;;3.03;2.30;;;;;;;3.26;80.53;98941.13;5071424;28;20235;-80
2023/04/03 05:38:40;;;;;;;3.70;2.33;;;;;;;3.19;81.66;98943.03;5071455;28;20213;-80
2023/04/03 05:41:06;;;;;;;3.07;2.77;;;;;;;3.17;82.01;98952.69;5071317;28;20251;-81
2023/04/03 05:43:34;;;;;;;4.87;2.97;;;;;;;3.22;80.28;98942.97;5071954;28;20204;-81
2023/04/03 05:46:00;;;;;;;2.83;2.50;;;;;;;3.29;77.48;98931.44;5071241;28;20255;-80
2023/04/03 05:48:27;;;;;;;2.53;2.33;;;;;;;3.31;78.83;98939.25;5086412;22;20231;-79
2023/04/03 05:50:55;;;;;;;3.20;2.37;;;;;;;3.39;78.27;98932.91;5070775;28;20218;-79
2023/04/03 05:53:24;;;;;;;3.20;2.50;;;;;;;3.40;77.96;98936.38;5071433;28;20204;-79
2023/04/03 05:55:51;;;;;;;2.57;2.23;;;;;;;3.46;77.72;98934.44;5071120;28;20670;-79
2023/04/03 05:58:17;;;;;;;2.50;2.30;;;;;;;3.48;76.77;98940.47;5071301;28;20228;-79
2023/04/03 06:00:44;;;;;;;3.07;2.03;;;;;;;3.55;77.53;98944.63;5070765;28;20244;-79
2023/04/03 06:03:10;;;;;;;3.20;2.47;;;;;;;3.53;78.21;98949.06;5071271;28;20203;-79
2023/04/03 06:05:37;;;;;;;4.80;2.57;;;;;;;3.55;79.29;98955.09;5071403;28;20211;-79
2023/04/03 06:08:05;;;;;;;2.40;2.13;;;;;;;3.66;75.46;98932.09;5071145;28;20255;-80
2023/04/03 06:10:32;;;;;;;3.47;2.30;;;;;;;3.65;75.51;98940.84;5070963;28;20202;-79
2023/04/03 06:12:58;;;;;;;6.00;2.43;;;;;;;3.68;76.99;98945.97;5070712;28;20223;-80
2023/04/03 06:15:25;;;;;;;2.53;2.30;;;;;;;3.70;76.44;98944.19;5071242;28;20215;-80
2023/04/03 06:17:51;;;;;;;4.03;2.30;;;;;;;3.66;77.13;98950.41;5070777;28;20228;-79
2023/04/03 06:20:18;;;;;;;2.80;2.43;;;;;;;3.69;79.11;98963.41;5070867;28;20209;-80
2023/04/03 06:22:44;;;;;;;2.20;2.00;;;;;;;3.72;78.82;98962.47;5071188;28;20208;-79
2023/04/03 06:25:12;;;;;;;4.33;2.70;;;;;;;3.70;78.35;98965.13;5071166;28;20606;-79
2023/04/03 06:27:39;;;;;;;3.47;2.80;;;;;;;3.67;79.68;98957.34;5070754;28;20582;-82
2023/04/03 06:30:07;;;;;;;6.17;2.33;;;;;;;3.68;80.39;98976.50;5068936;28;20632;-81
2023/04/03 06:32:33;;;;;;;4.30;2.60;;;;;;;3.76;79.20;98970.16;5068210;28;20243;-82
2023/04/03 06:35:00;;;;;;;4.93;2.80;;;;;;;3.78;80.57;98978.81;5069942;28;20618;-81
2023/04/03 06:37:28;;;;;;;4.37;2.80;;;;;;;3.85;81.14;98988.19;5071156;28;20236;-82
2023/04/03 06:39:55;;;;;;;2.53;2.30;;;;;;;3.83;80.38;98987.38;5068891;28;20214;-81
2023/04/03 06:42:23;;;;;;;4.77;2.70;;;;;;;3.90;81.72;98986.31;5067782;28;20254;-82
2023/04/03 06:44:49;;;;;;;4.53;2.70;;;;;;;3.92;81.41;98987.09;5070072;28;20208;-79
2023/04/03 06:47:17;;;;;;;3.10;2.60;;;;;;;3.97;80.57;98979.97;5070900;28;20250;-79
2023/04/03 06:49:44;;;;;;;3.30;2.63;;;;;;;3.94;82.33;98989.69;5068698;28;20222;-79
2023/04/03 06:52:12;;;;;;;3.70;2.93;;;;;;;4.02;81.12;98988.56;5068083;28;20204;-79
2023/04/03 06:54:40;;;;;;;4.30;2.73;;;;;;;4.03;81.28;98989.44;5070087;28;20674;-82
2023/04/03 06:57:07;;;;;;;4.37;3.27;;;;;;;3.97;80.91;98994.84;5070772;28;20232;-81
2023/04/03 06:59:35;;;;;;;3.30;2.70;;;;;;;4.02;81.17;98988.56;5070423;28;20335;-82
2023/04/03 07:02:01;;;;;;;4.10;2.77;;;;;;;4.04;81.31;99002.44;5071072;28;20232;-82
2023/04/03 07:04:28;;;;;;;3.43;2.33;;;;;;;4.12;83.13;98999.59;5070845;28;20580;-79
2023/04/03 07:06:54;;;;;;;6.30;2.87;;;;;;;4.23;82.99;99002.75;5070723;28;20314;-81
2023/04/03 07:09:21;;;;;;;4.47;3.27;;;;;;;4.28;82.19;99009.56;5070451;28;20205;-81
2023/04/03 07:11:47;;;;;;;3.78;3.13;;;;;;;4.36;82.78;99010.19;5069764;28;20521;-80
2023/04/03 07:14:14;;;;;;;3.93;2.90;;;;;;;4.38;81.40;99002.28;5070480;28;20213;-81
2023/04/03 07:16:42;;;;;;;3.53;3.20;;;;;;;4.45;81.30;99009.06;5070932;28;20236;-79
2023/04/03 07:19:09;;;;;;;5.10;3.20;;;;;;;4.54;81.16;99003.53;5070572;28;20208;-81
2023/04/03 07:21:36;;;;;;;5.47;3.50;;;;;;;4.63;81.81;99014.56;5070525;28;20231;-80
2023/04/03 07:24:02;;;;;;;4.30;2.90;;;;;;;4.75;81.81;99008.94;5070487;28;20291;-80
2023/04/03 07:26:29;;;;;;;2.97;2.70;;;;;;;4.79;80.16;98997.47;5073741;28;20225;-78
2023/04/03 07:28:55;;;;;;;4.97;3.10;;;;;;;4.78;79.05;99003.63;5074171;28;20282;-79
2023/04/03 07:31:22;;;;;;;4.03;2.50;;;;;;;4.88;78.87;99004.16;5073962;28;20209;-77
2023/04/03 07:33:51;;;;;;;5.65;3.30;;;;;;;4.91;79.76;99010.16;5073015;28;20434;-77
2023/04/03 07:36:20;;;;;;;7.43;3.23;;;;;;;4.99;79.58;98996.78;5073838;28;20309;-78
2023/04/03 07:38:47;;;;;;;2.63;2.43;;;;;;;5.04;79.02;99000.97;5073965;28;20587;-77
2023/04/03 07:41:17;;;;;;;4.40;2.93;;;;;;;5.13;81.33;99012.91;5073657;28;20240;-77
2023/04/03 07:43:43;;;;;;;4.13;3.30;;;;;;;5.34;79.35;99006.94;5072785;28;20864;-80
2023/04/03 07:46:10;;;;;;;4.73;3.20;;;;;;;5.36;80.95;99013.84;5071868;28;20207;-78
2023/04/03 07:49:51;;;;;;;3.20;2.60;;;;;;;5.43;80.35;99015.34;5108193;27;20489;-77
2023/04/03 07:52:18;;;;;;;4.07;3.00;;;;;;;5.50;81.02;99016.81;5106490;28;20212;-89
2023/04/03 07:54:44;;;;;;;4.03;2.63;;;;;;;5.56;81.06;99027.09;5105113;28;20210;-77
2023/04/03 07:57:11;;;;;;;6.87;3.17;;;;;;;5.62;78.12;99005.91;5105394;28;20572;-76
2023/04/03 07:59:39;;;;;;;3.43;3.07;;;;;;;5.57;77.15;99007.00;5107962;28;20209;-77
2023/04/03 08:02:06;;;;;;;3.70;2.90;;;;;;;5.49;78.44;99019.53;5108314;28;20641;-79
2023/04/03 08:04:33;;;;;;;4.50;2.97;;;;;;;5.48;76.81;99007.31;5122351;22;20321;-80
2023/04/03 08:07:00;;;;;;;3.40;3.00;;;;;;;5.51;74.74;99004.59;5107222;28;20215;-78
2023/04/03 08:09:31;;;;;;;6.13;3.53;;;;;;;5.50;76.07;99013.38;5108107;28;20600;-78
2023/04/03 08:11:57;;;;;;;4.87;2.80;;;;;;;5.55;76.56;99019.31;5108793;28;20262;-78
2023/04/03 08:14:24;;;;;;;2.93;2.63;;;;;;;5.59;76.65;99016.53;5108324;28;20228;-78
2023/04/03 08:16:51;;;;;;;4.90;3.00;;;;;;;5.58;77.08;99020.06;5108414;28;20733;-78
2023/04/03 08:19:19;;;;;;;3.83;2.80;;;;;;;5.50;75.47;99016.81;5108064;28;20259;-78
2023/04/03 08:21:48;;;;;;;5.63;3.20;;;;;;;5.54;75.48;99021.06;5108289;28;20622;-78
2023/04/03 08:24:16;;;;;;;5.57;3.40;;;;;;;5.57;75.31;99023.56;5108329;28;20239;-78
2023/04/03 08:26:43;;;;;;;3.53;2.93;;;;;;;5.73;77.85;99030.00;5108097;28;20222;-78
2023/04/03 08:29:09;;;;;;;4.27;2.93;;;;;;;5.86;72.85;99004.22;5107910;28;20309;-79
2023/04/03 08:31:36;;;;;;;3.63;3.30;;;;;;;5.98;73.64;99012.47;5108041;28;20289;-78
2023/04/03 08:34:03;;;;;;;4.77;3.00;;;;;;;6.09;75.60;99020.81;5107205;28;20429;-78
2023/04/03 08:36:31;;;;;;;3.70;2.97;;;;;;;6.19;76.68;99027.44;5107080;28;20205;-79
2023/04/03 08:38:58;;;;;;;3.80;2.80;;;;;;;6.20;75.56;99015.16;5107558;28;20205;-78
2023/04/03 08:41:32;;;;;;;3.97;3.20;;;;;;;6.22;76.12;99029.94;5107059;28;20220;-80
2023/04/03 08:44:05;;;;;;;3.60;2.93;;;;;;;6.18;76.19;99033.56;5107319;28;20256;-79
2023/04/03 08:46:43;;;;;;;3.60;2.73;;;;;;;6.22;74.21;99013.34;5106883;28;20222;-79
2023/04/03 08:49:23;;;;;;;2.70;2.50;;;;;;;6.32;74.24;99018.19;5107102;28;20230;-78
2023/04/03 08:51:51;;;;;;;4.33;3.20;;;;;;;6.51;75.40;99019.19;5107352;28;20225;-78
2023/04/03 08:54:26;;;;;;;4.40;2.70;;;;;;;6.59;71.79;99003.97;5107091;28;20226;-81
2023/04/03 08:56:55;;;;;;;4.90;2.60;;;;;;;6.64;73.91;99020.41;5107137;28;20259;-79
2023/04/03 08:59:27;;;;;;;4.03;2.83;;;;;;;6.72;72.80;99015.69;5103639;28;20206;-81
2023/04/03 09:01:55;;;;;;;3.47;2.40;;;;;;;6.64;70.85;98996.75;5093519;28;20242;-79
2023/04/03 09:04:21;;;;;;;4.37;3.03;;;;;;;6.86;75.10;99023.91;5093716;28;20239;-80
2023/04/03 09:06:53;;;;;;;4.47;3.17;;;;;;;7.08;75.31;99029.13;5093939;28;20590;-80
2023/04/03 09:09:32;;;;;;;4.70;2.90;;;;;;;7.25;75.27;99017.00;5093556;28;20235;-82
2023/04/03 09:12:09;;;;;;;4.10;2.90;;;;;;;7.17;72.55;99012.97;5094239;28;20206;-81
2023/04/03 09:14:40;;;;;;;3.57;2.63;;;;;;;7.01;69.00;98991.72;5093980;28;20234;-81
2023/04/03 09:17:16;;;;;;;3.10;2.70;;;;;;;6.95;69.40;99007.75;5094015;28;20214;-81
2023/04/03 09:19:51;;;;;;;3.00;2.70;;;;;;;6.86;70.85;99009.91;5093591;28;20191;-80
2023/04/03 09:22:21;;;;;;;3.60;2.63;;;;;;;6.89;67.39;98994.00;5093690;28;20209;-83
2023/04/03 09:24:53;;;;;;;4.13;2.80;;;;;;;6.87;66.43;98993.19;5093621;28;20223;-82
2023/04/03 09:27:21;;;;;;;3.53;2.90;;;;;;;6.86;69.24;99013.38;5093634;28;20223;-82
2023/04/03 09:29:47;;;;;;;4.77;2.70;;;;;;;6.91;69.34;99008.78;5093313;28;20241;-84
2023/04/03 09:32:24;;;;;;;3.50;2.70;;;;;;;6.99;68.57;98998.81;5093588;28;20225;-82
2023/04/03 09:34:53;;;;;;;3.60;2.57;;;;;;;6.98;67.54;98994.50;5093261;28;20226;-83
2023/04/03 09:37:37;;;;;;;4.38;2.80;;;;;;;7.02;70.56;99009.19;5093327;28;20428;-85
2023/04/03 09:40:05;;;;;;;6.60;2.90;;;;;;;7.06;67.94;98995.03;5093092;28;20218;-83
2023/04/03 09:42:33;;;;;;;3.93;2.73;;;;;;;6.95;65.82;98970.94;5093390;28;20202;-80
2023/04/03 09:45:02;;;;;;;3.33;2.50;;;;;;;7.02;67.23;98998.69;5093136;28;20210;-82
2023/04/03 09:47:30;;;;;;;5.00;2.20;;;;;;;6.98;66.97;98986.59;5093096;28;20618;-79
2023/04/03 09:50:19;;;;;;;3.57;2.13;;;;;;;7.02;66.45;98992.59;5092680;28;20317;-81
2023/04/03 09:52:48;;;;;;;3.43;2.47;;;;;;;6.90;66.65;99001.81;5075729;28;20301;-79
2023/04/03 09:55:16;;;;;;;6.03;2.57;;;;;;;6.95;65.56;98981.47;5093031;28;20207;-81
2023/04/03 09:57:44;;;;;;;4.47;2.50;;;;;;;7.11;64.84;98979.91;5093151;28;20259;-78
2023/04/03 10:00:23;;;;;;;5.70;2.63;;;;;;;7.20;66.67;98991.81;5092698;28;20206;-80
2023/04/03 10:02:53;;;;;;;4.00;2.33;;;;;;;7.09;65.16;98989.63;5092732;28;20599;-79
2023/04/03 10:05:32;;;;;;;5.40;2.60;;;;;;;7.15;66.15;98984.09;5092818;28;20213;-83
2023/04/03 10:08:11;;;;;;;4.47;2.60;;;;;;;7.21;66.57;98991.72;5093113;28;20210;-82
2023/04/03 10:10:39;;;;;;;4.17;2.30;;;;;;;7.17;64.79;98976.16;5092261;28;20555;-81
2023/04/03 10:13:09;;;;;;;3.80;2.30;;;;;;;7.13;66.20;98985.97;5092024;28;20317;-82
2023/04/03 10:15:41;;;;;;;3.50;2.20;;;;;;;7.13;63.78;98966.69;5092679;28;20202;-80
2023/04/03 10:18:30;;;;;;;3.40;2.30;;;;;;;7.06;63.82;98962.63;5092379;28;20214;-77
2023/04/03 10:21:01;;;;;;;2.33;2.13;;;;;;;7.01;62.74;98960.19;5092407;28;20578;-81
2023/04/03 10:23:32;;;;;;;2.90;2.20;;;;;;;6.97;63.36;98952.50;5092397;28;20703;-78
2023/04/03 10:26:10;;;;;;;2.63;2.10;;;;;;;7.03;63.79;98960.13;5092303;28;20217;-78
2023/04/03 10:28:47;;;;;;;2.63;2.00;;;;;;;7.05;63.16;98951.25;5092276;28;20321;-81
2023/04/03 10:31:22;;;;;;;4.53;2.00;;;;;;;7.11;63.80;98956.25;5092279;28;20237;-81
2023/04/03 10:34:01;;;;;;;2.50;2.10;;;;;;;7.13;63.42;98962.28;5092272;28;20248;-82
2023/04/03 10:36:38;;;;;;;1.90;1.80;;;;;;;7.04;58.78;98912.75;5092329;28;20300;-80
2023/04/03 10:39:16;;;;;;;3.83;1.90;;;;;;;7.04;62.73;98951.31;5091974;28;20238;-81
2023/04/03 10:41:57;;;;;;;3.83;2.07;;;;;;;7.00;61.01;98942.72;5092411;28;20581;-80
2023/04/03 10:44:35;;;;;;;2.13;1.83;;;;;;;6.93;62.36;98949.16;5092106;28;20241;-83
2023/04/03 10:47:11;;;;;;;3.67;2.27;;;;;;;6.92;62.71;98960.59;5091941;28;20301;-79
2023/04/03 10:49:51;;;;;;;3.10;1.93;;;;;;;6.92;62.75;98959.72;5091781;28;20257;-79
2023/04/03 10:52:23;;;;;;;4.37;1.87;;;;;;;6.90;63.67;98957.13;5092046;28;20241;-80
2023/04/03 10:55:00;;;;;;;3.80;1.67;;;;;;;7.09;60.90;98934.41;5091754;28;20708;-79
2023/04/03 10:57:29;;;;;;;3.33;1.90;;;;;;;7.19;60.06;98933.13;5091826;28;20305;-78
2023/04/03 11:00:01;;;;;;;1.93;1.73;;;;;;;7.18;59.24;98927.00;5091373;28;20215;-79
2023/04/03 11:02:31;;;;;;;2.60;1.70;;;;;;;7.22;60.45;98937.41;5091779;28;20699;-79
2023/04/03 11:05:02;;;;;;;2.83;1.60;;;;;;;7.24;58.80;98920.63;5091525;28;20234;-79
2023/04/03 11:07:34;;;;;;;3.70;1.57;;;;;;;7.22;58.08;98917.22;5091675;28;20206;-81
2023/04/03 11:10:06;;;;;;;2.03;1.70;;;;;;;7.14;58.72;98919.31;5091273;28;20232;-80
2023/04/03 11:12:41;;;;;;;3.13;1.80;;;;;;;7.10;61.25;98933.53;5091824;28;20200;-81
2023/04/03 11:15:13;;;;;;;3.03;1.83;;;;;;;7.12;60.87;98938.69;5091489;28;20210;-81
2023/04/03 11:17:46;;;;;;;2.97;1.73;;;;;;;7.11;59.59;98924.72;5091639;28;20214;-81
2023/04/03 11:20:19;;;;;;;2.83;1.80;;;;;;;7.06;56.46;98894.28;5091212;28;20238;-80
2023/04/03 11:22:51;;;;;;;5.07;2.00;;;;;;;7.02;60.55;98935.59;5091159;28;20304;-80
2023/04/03 11:25:22;;;;;;;4.27;2.00;;;;;;;7.04;59.92;98941.69;5091579;28;20226;-81
2023/04/03 11:27:54;;;;;;;2.93;1.97;;;;;;;6.97;59.93;98921.81;5091520;28;20203;-81
2023/04/03 11:30:26;;;;;;;2.23;1.80;;;;;;;6.93;61.17;98940.41;5091102;28;20242;-80
2023/04/03 11:33:10;;;;;;;2.40;1.93;;;;;;;6.87;62.43;98957.28;5091434;28;20285;-80
2023/04/03 11:35:37;;;;;;;1.80;1.60;;;;;;;6.87;58.68;98915.25;5088602;28;20217;-81
2023/04/03 11:38:07;;;;;;;1.80;1.70;;;;;;;6.81;60.04;98930.41;5090710;28;20236;-81
2023/04/03 11:40:36;;;;;;;3.00;1.80;;;;;;;6.78;60.18;98934.00;5090164;28;20217;-78
2023/04/03 11:43:16;;;;;;;1.67;1.57;;;;;;;6.86;60.72;98931.94;5090297;28;20238;-78
2023/04/03 11:45:55;;;;;;;3.53;1.67;;;;;;;6.84;58.92;98915.34;5089933;28;20210;-78
2023/04/03 11:48:45;;;;;;;2.13;1.63;;;;;;;7.01;59.11;98917.28;5090692;28;20214;-78
2023/04/03 11:51:39;;;;;;;2.40;1.70;;;;;;;7.10;57.47;98901.97;5090228;28;20214;-77